createdAt,value
2023-09-14T00:00:56.514Z,2.55
2023-09-14T00:03:24.828Z,2.60
2023-09-14T00:05:53.040Z,2.30
2023-09-14T00:08:22.812Z,2.35
2023-09-14T00:10:57.083Z,2.50
2023-09-14T00:13:25.363Z,2.78
2023-09-14T00:15:53.556Z,3.53
2023-09-14T00:18:21.908Z,2.72
2023-09-14T00:20:53.991Z,2.45
2023-09-14T00:23:22.828Z,2.70
2023-09-14T00:25:51.468Z,2.10
2023-09-14T00:28:20.982Z,2.80
2023-09-14T00:30:54.504Z,2.60
2023-09-14T00:33:23.988Z,2.45
2023-09-14T00:35:52.320Z,2.80
2023-09-14T00:38:20.412Z,2.30
2023-09-14T00:40:49.628Z,2.58
2023-09-14T00:43:17.920Z,2.40
2023-09-14T00:45:48.294Z,2.58
2023-09-14T00:48:18.111Z,2.92
2023-09-14T00:50:46.742Z,2.90
2023-09-14T00:53:16.988Z,2.50
2023-09-14T00:55:46.688Z,2.33
2023-09-14T00:58:17.274Z,2.30
2023-09-14T01:00:48.604Z,2.67
2023-09-14T01:03:17.256Z,2.60
2023-09-14T01:05:46.770Z,2.72
2023-09-14T01:08:15.270Z,2.33
2023-09-14T01:10:45.832Z,2.20
2023-09-14T01:13:24.387Z,2.63
2023-09-14T01:16:01.050Z,2.70
2023-09-14T01:18:35.684Z,2.75
2023-09-14T01:21:34.107Z,2.70
2023-09-14T01:24:20.074Z,2.85
2023-09-14T01:26:50.811Z,2.50
2023-09-14T01:29:19.721Z,2.78
2023-09-14T01:31:47.786Z,2.63
2023-09-14T01:34:16.086Z,2.20
2023-09-14T01:36:52.845Z,2.47
2023-09-14T01:39:22.871Z,2.90
2023-09-14T01:41:56.204Z,2.83
2023-09-14T01:44:28.267Z,2.55
2023-09-14T01:46:57.366Z,2.60
2023-09-14T01:49:25.479Z,2.92
2023-09-14T01:51:54.181Z,2.60
2023-09-14T01:54:22.312Z,2.95
2023-09-14T01:56:52.434Z,2.95
2023-09-14T01:59:20.503Z,2.80
2023-09-14T02:01:48.659Z,3.00
2023-09-14T02:04:16.734Z,2.53
2023-09-14T02:06:44.807Z,3.15
2023-09-14T02:09:12.883Z,3.08
2023-09-14T02:11:40.932Z,2.70
2023-09-14T02:14:11.201Z,2.65
2023-09-14T02:16:39.389Z,2.90
2023-09-14T02:19:07.525Z,2.65
2023-09-14T02:21:35.675Z,2.78
2023-09-14T02:24:03.717Z,2.97
2023-09-14T02:26:31.782Z,2.88
2023-09-14T02:28:59.837Z,2.70
2023-09-14T02:31:30.056Z,2.65
2023-09-14T02:33:58.470Z,2.42
2023-09-14T02:36:28.165Z,3.20
2023-09-14T02:38:56.898Z,3.20
2023-09-14T02:41:24.974Z,2.63
2023-09-14T02:43:53.047Z,2.72
2023-09-14T02:46:21.115Z,2.72
2023-09-14T02:48:50.920Z,2.70
2023-09-14T02:51:19.907Z,2.17
2023-09-14T02:53:49.882Z,3.10
2023-09-14T02:56:18.187Z,2.72
2023-09-14T02:58:46.381Z,2.15
2023-09-14T03:01:14.937Z,2.58
2023-09-14T03:03:43.264Z,2.78
2023-09-14T03:06:12.728Z,2.63
2023-09-14T03:08:41.062Z,2.70
2023-09-14T03:11:09.165Z,2.92
2023-09-14T03:13:37.949Z,2.72
2023-09-14T03:16:06.421Z,3.25
2023-09-14T03:18:34.672Z,2.92
2023-09-14T03:21:02.739Z,3.05
2023-09-14T03:23:33.681Z,2.88
2023-09-14T03:26:01.768Z,2.78
2023-09-14T03:28:29.847Z,3.35
2023-09-14T03:30:57.887Z,2.97
2023-09-14T03:33:25.983Z,3.08
2023-09-14T03:35:54.114Z,3.28
2023-09-14T03:38:22.226Z,2.95
2023-09-14T03:40:51.750Z,3.17
2023-09-14T03:43:19.772Z,3.00
2023-09-14T03:45:48.205Z,3.10
2023-09-14T03:48:17.491Z,2.92
2023-09-14T03:50:45.712Z,3.00
2023-09-14T03:53:13.718Z,3.00
2023-09-14T03:55:42.090Z,3.00
2023-09-14T03:58:11.612Z,2.80
2023-09-14T04:00:39.819Z,2.42
2023-09-14T04:03:09.724Z,2.95
2023-09-14T04:05:37.922Z,2.50
2023-09-14T04:08:08.319Z,2.70
2023-09-14T04:10:39.432Z,2.83
2023-09-14T04:13:28.669Z,2.45
2023-09-14T04:15:58.462Z,2.15
2023-09-14T04:18:27.070Z,2.42
2023-09-14T04:20:55.962Z,2.80
2023-09-14T04:23:24.234Z,3.40
2023-09-14T04:25:52.939Z,3.45
2023-09-14T04:28:22.306Z,2.80
2023-09-14T04:30:54.372Z,3.10
2023-09-14T04:33:23.354Z,3.03
2023-09-14T04:35:57.192Z,2.70
2023-09-14T04:38:25.481Z,3.00
2023-09-14T04:40:53.698Z,3.13
2023-09-14T04:43:23.712Z,2.30
2023-09-14T04:45:53.469Z,2.80
2023-09-14T04:48:22.182Z,2.75
2023-09-14T04:50:50.286Z,2.70
2023-09-14T04:53:19.841Z,2.67
2023-09-14T04:55:48.613Z,2.53
2023-09-14T04:58:17.188Z,3.45
2023-09-14T05:00:45.481Z,2.67
2023-09-14T05:03:15.029Z,2.65
2023-09-14T05:05:43.275Z,2.60
2023-09-14T05:08:11.734Z,2.50
2023-09-14T05:10:40.010Z,2.72
2023-09-14T05:13:08.222Z,2.60
2023-09-14T05:15:36.483Z,2.83
2023-09-14T05:18:05.390Z,2.60
2023-09-14T05:20:34.888Z,2.67
2023-09-14T05:23:03.202Z,2.70
2023-09-14T05:25:31.292Z,2.90
2023-09-14T05:28:00.530Z,2.40
2023-09-14T05:30:28.689Z,2.63
2023-09-14T05:32:57.122Z,2.67
2023-09-14T05:35:25.214Z,3.10
2023-09-14T05:37:54.878Z,2.60
2023-09-14T05:40:23.087Z,2.75
2023-09-14T05:42:51.190Z,2.92
2023-09-14T05:45:20.090Z,2.72
2023-09-14T05:47:48.467Z,3.10
2023-09-14T05:50:16.540Z,3.00
2023-09-14T05:52:44.891Z,2.80
2023-09-14T05:55:14.378Z,3.15
2023-09-14T05:57:42.587Z,3.00
2023-09-14T06:00:14.302Z,3.35
2023-09-14T06:02:48.147Z,3.63
2023-09-14T06:05:25.262Z,3.05
2023-09-14T06:07:54.542Z,3.15
2023-09-14T06:10:24.427Z,3.08
2023-09-14T06:12:53.043Z,3.35
2023-09-14T06:15:21.308Z,3.17
2023-09-14T06:17:49.621Z,3.10
2023-09-14T06:20:18.134Z,3.13
2023-09-14T06:22:46.264Z,2.67
2023-09-14T06:25:14.495Z,3.33
2023-09-14T06:27:45.433Z,3.10
2023-09-14T06:30:14.681Z,3.45
2023-09-14T06:32:42.753Z,3.38
2023-09-14T06:35:12.037Z,2.50
2023-09-14T06:37:40.159Z,2.55
2023-09-14T06:40:10.215Z,2.38
2023-09-14T06:42:38.615Z,3.10
2023-09-14T06:45:09.531Z,2.92
2023-09-14T06:47:37.664Z,2.97
2023-09-14T06:50:06.308Z,3.33
2023-09-14T06:52:35.448Z,2.83
2023-09-14T06:55:04.159Z,2.85
2023-09-14T06:57:32.243Z,3.28
2023-09-14T07:00:01.942Z,3.08
2023-09-14T07:02:31.612Z,2.85
2023-09-14T07:04:59.696Z,2.72
2023-09-14T07:07:27.778Z,2.92
2023-09-14T07:09:55.863Z,3.10
2023-09-14T07:12:24.035Z,2.85
2023-09-14T07:14:52.186Z,2.95
2023-09-14T07:17:22.946Z,2.42
2023-09-14T07:19:53.002Z,2.90
2023-09-14T07:22:21.744Z,2.85
2023-09-14T07:24:50.067Z,2.55
2023-09-14T07:27:18.499Z,2.33
2023-09-14T07:29:48.659Z,2.42
2023-09-14T07:32:16.809Z,2.60
2023-09-14T07:34:45.117Z,2.40
2023-09-14T07:37:14.812Z,2.25
2023-09-14T07:39:43.048Z,2.53
2023-09-14T07:42:11.249Z,2.10
2023-09-14T07:44:39.460Z,2.05
2023-09-14T07:47:07.681Z,2.10
2023-09-14T07:49:35.837Z,1.85
2023-09-14T07:52:04.029Z,1.85
2023-09-14T07:54:35.768Z,2.00
2023-09-14T07:57:03.913Z,2.08
2023-09-14T07:59:32.033Z,2.05
2023-09-14T08:02:00.116Z,1.98
2023-09-14T08:04:28.287Z,1.88
2023-09-14T08:06:56.504Z,1.92
2023-09-14T08:09:25.001Z,2.28
2023-09-14T08:11:54.409Z,2.00
2023-09-14T08:14:22.420Z,1.90
2023-09-14T08:16:50.745Z,1.85
2023-09-14T08:19:18.965Z,2.33
2023-09-14T08:21:47.061Z,1.75
2023-09-14T08:24:15.220Z,1.90
2023-09-14T08:26:43.312Z,2.10
2023-09-14T08:29:13.376Z,2.05
2023-09-14T08:31:44.089Z,1.60
2023-09-14T08:34:13.220Z,1.63
2023-09-14T08:36:41.323Z,1.48
2023-09-14T08:39:16.369Z,1.35
2023-09-14T08:41:45.641Z,1.80
2023-09-14T08:44:16.624Z,1.50
2023-09-14T08:46:46.214Z,2.03
2023-09-14T08:49:15.776Z,1.60
2023-09-14T08:51:46.023Z,1.40
2023-09-14T08:54:17.182Z,1.80
2023-09-14T08:56:47.999Z,1.40
2023-09-14T08:59:21.130Z,1.60
2023-09-14T09:01:50.174Z,1.55
2023-09-14T09:04:18.912Z,1.17
2023-09-14T09:06:47.401Z,1.50
2023-09-14T09:09:22.412Z,1.50
2023-09-14T09:11:51.696Z,1.73
2023-09-14T09:14:21.160Z,1.80
2023-09-14T09:16:49.269Z,1.40
2023-09-14T09:19:17.601Z,1.33
2023-09-14T09:21:48.169Z,1.20
2023-09-14T09:24:28.127Z,1.58
2023-09-14T09:26:56.874Z,1.27
2023-09-14T09:29:27.368Z,1.40
2023-09-14T09:31:55.542Z,1.48
2023-09-14T09:34:26.848Z,1.30
2023-09-14T09:36:59.316Z,1.33
2023-09-14T09:39:27.757Z,1.30
2023-09-14T09:41:55.956Z,1.42
2023-09-14T09:44:28.594Z,1.00
2023-09-14T09:47:00.099Z,1.67
2023-09-14T09:49:32.367Z,1.45
2023-09-14T09:52:00.702Z,1.50
2023-09-14T09:54:29.122Z,1.40
2023-09-14T09:56:59.034Z,1.20
2023-09-14T09:59:30.946Z,1.35
2023-09-14T10:02:00.498Z,1.38
2023-09-14T10:04:29.638Z,1.38
2023-09-14T10:06:58.272Z,1.15
2023-09-14T10:09:34.451Z,1.17
2023-09-14T10:12:05.475Z,1.30
2023-09-14T10:14:37.128Z,1.38
2023-09-14T10:17:09.925Z,1.27
2023-09-14T10:19:40.816Z,1.23
2023-09-14T10:22:10.796Z,1.13
2023-09-14T10:24:39.446Z,1.80
2023-09-14T10:27:08.970Z,1.40
2023-09-14T10:29:40.544Z,1.33
2023-09-14T10:32:12.265Z,1.60
2023-09-14T10:34:52.143Z,1.27
2023-09-14T10:37:22.025Z,1.42
2023-09-14T10:39:50.827Z,1.63
2023-09-14T10:42:19.005Z,1.50
2023-09-14T10:44:47.175Z,1.40
2023-09-14T10:47:19.193Z,1.52
2023-09-14T10:49:48.637Z,1.20
2023-09-14T10:52:25.459Z,1.70
2023-09-14T10:54:53.640Z,1.52
2023-09-14T10:57:25.141Z,1.60
2023-09-14T10:59:55.084Z,1.40
2023-09-14T11:05:43.413Z,1.10
2023-09-14T11:08:13.311Z,1.40
2023-09-14T11:10:56.448Z,1.80
2023-09-14T11:13:36.782Z,1.10
2023-09-14T11:16:16.154Z,1.70
2023-09-14T11:18:59.338Z,1.40
2023-09-14T11:21:45.558Z,1.50
2023-09-14T11:24:18.153Z,1.58
2023-09-14T11:26:53.673Z,2.00
2023-09-14T11:29:28.367Z,1.55
2023-09-14T11:32:02.285Z,1.45
2023-09-14T11:34:39.729Z,1.40
2023-09-14T11:37:19.794Z,1.65
2023-09-14T11:40:30.926Z,1.83
2023-09-14T11:46:05.706Z,1.15
2023-09-14T11:51:10.323Z,2.05
2023-09-14T11:53:38.590Z,1.42
2023-09-14T11:56:06.833Z,1.73
2023-09-14T11:58:36.663Z,1.67
2023-09-14T12:01:05.456Z,1.77
2023-09-14T12:03:33.801Z,1.50
2023-09-14T12:06:02.111Z,1.70
2023-09-14T12:08:33.713Z,1.70
2023-09-14T12:11:03.025Z,1.52
2023-09-14T12:13:31.628Z,1.55
2023-09-14T12:16:01.837Z,2.03
2023-09-14T12:18:42.290Z,1.90
2023-09-14T12:21:11.493Z,1.75
2023-09-14T12:23:43.353Z,1.80
2023-09-14T12:26:15.865Z,1.80
2023-09-14T12:28:48.026Z,1.60
2023-09-14T12:31:17.813Z,1.67
2023-09-14T12:33:46.639Z,2.10
2023-09-14T12:36:20.936Z,2.15
2023-09-14T12:38:52.528Z,1.92
2023-09-14T12:41:23.324Z,1.75
2023-09-14T12:43:51.745Z,2.00
2023-09-14T12:46:40.523Z,2.70
2023-09-14T12:49:08.936Z,2.50
2023-09-14T12:51:45.819Z,2.70
2023-09-14T12:54:18.138Z,2.00
2023-09-14T12:56:46.542Z,2.05
2023-09-14T12:59:14.599Z,2.05
2023-09-14T13:01:42.718Z,2.00
2023-09-14T13:04:11.127Z,1.95
2023-09-14T13:06:39.563Z,2.00
2023-09-14T13:09:09.788Z,2.05
2023-09-14T13:11:40.287Z,1.90
2023-09-14T13:14:08.933Z,2.17
2023-09-14T13:16:37.126Z,2.53
2023-09-14T13:19:05.796Z,2.33
2023-09-14T13:21:37.839Z,2.35
2023-09-14T13:24:07.640Z,2.15
2023-09-14T13:26:36.180Z,2.22
2023-09-14T13:29:06.079Z,2.20
2023-09-14T13:31:34.216Z,2.13
2023-09-14T13:34:03.110Z,1.88
2023-09-14T13:36:31.263Z,2.35
2023-09-14T13:39:02.127Z,1.90
2023-09-14T13:41:30.603Z,2.25
2023-09-14T13:43:58.644Z,2.10
2023-09-14T13:46:29.187Z,2.90
2023-09-14T13:48:58.800Z,2.20
2023-09-14T13:51:27.058Z,2.58
2023-09-14T13:53:55.127Z,2.30
2023-09-14T13:56:23.204Z,2.38
2023-09-14T13:58:51.255Z,3.15
2023-09-14T14:01:19.449Z,2.60
2023-09-14T14:03:49.850Z,2.55
2023-09-14T14:06:18.065Z,3.30
2023-09-14T14:08:46.128Z,2.90
2023-09-14T14:11:14.128Z,2.40
2023-09-14T14:13:42.204Z,2.67
2023-09-14T14:16:10.936Z,2.72
2023-09-14T14:18:39.068Z,2.42
2023-09-14T14:21:08.488Z,2.78
2023-09-14T14:23:36.553Z,2.50
2023-09-14T14:26:04.585Z,2.58
2023-09-14T14:28:32.672Z,2.67
2023-09-14T14:31:00.789Z,2.42
2023-09-14T14:33:31.547Z,2.40
2023-09-14T14:36:00.940Z,2.25
2023-09-14T14:38:30.369Z,2.65
2023-09-14T14:41:25.885Z,2.03
2023-09-14T14:43:46.804Z,2.75
2023-09-14T14:46:15.346Z,2.40
2023-09-14T14:48:44.324Z,2.20
2023-09-14T14:51:12.616Z,2.58
2023-09-14T14:53:42.933Z,2.45
2023-09-14T14:56:11.075Z,2.88
2023-09-14T14:58:39.097Z,2.50
2023-09-14T15:01:11.515Z,2.50
2023-09-14T15:03:40.006Z,2.50
2023-09-14T15:06:08.879Z,2.55
2023-09-14T15:08:37.742Z,2.40
2023-09-14T15:11:08.177Z,2.53
2023-09-14T15:13:36.723Z,2.30
2023-09-14T15:16:05.484Z,2.47
2023-09-14T15:18:38.562Z,2.40
2023-09-14T15:21:07.063Z,2.83
2023-09-14T15:23:35.379Z,2.53
2023-09-14T15:26:05.725Z,2.55
2023-09-14T15:28:35.277Z,2.67
2023-09-14T15:31:11.707Z,2.45
2023-09-14T15:33:40.395Z,3.28
2023-09-14T15:36:08.846Z,2.60
2023-09-14T15:38:36.977Z,2.22
2023-09-14T15:41:05.059Z,2.47
2023-09-14T15:43:33.092Z,3.35
2023-09-14T15:46:03.137Z,2.80
2023-09-14T15:48:31.517Z,2.40
2023-09-14T15:50:59.629Z,2.50
2023-09-14T15:53:28.771Z,2.63
2023-09-14T15:55:56.937Z,2.33
2023-09-14T15:58:24.977Z,2.30
2023-09-14T16:00:58.460Z,2.35
2023-09-14T16:03:28.119Z,2.60
2023-09-14T16:05:58.398Z,2.60
2023-09-14T16:08:26.508Z,2.72
2023-09-14T16:10:57.014Z,2.60
2023-09-14T16:13:25.104Z,2.20
2023-09-14T16:15:53.520Z,2.30
2023-09-14T16:18:21.912Z,2.88
2023-09-14T16:20:51.377Z,2.70
2023-09-14T16:23:19.493Z,2.47
2023-09-14T16:25:52.046Z,2.63
2023-09-14T16:28:20.840Z,2.50
2023-09-14T16:30:51.277Z,2.65
2023-09-14T16:33:21.457Z,2.72
2023-09-14T16:35:57.217Z,2.67
2023-09-14T16:38:25.750Z,2.40
2023-09-14T16:40:54.021Z,2.55
2023-09-14T16:43:22.349Z,2.80
2023-09-14T16:45:50.821Z,2.78
2023-09-14T16:48:19.003Z,2.60
2023-09-14T16:50:49.398Z,2.92
2023-09-14T16:53:19.933Z,2.17
2023-09-14T16:55:48.031Z,2.60
2023-09-14T16:58:17.205Z,2.40
2023-09-14T17:00:45.252Z,2.55
2023-09-14T17:03:15.764Z,2.70
2023-09-14T17:05:43.797Z,2.53
2023-09-14T17:08:13.557Z,2.47
2023-09-14T17:10:42.963Z,2.30
2023-09-14T17:13:11.059Z,2.38
2023-09-14T17:15:39.237Z,2.72
2023-09-14T17:18:08.014Z,2.03
2023-09-14T17:20:36.174Z,2.20
2023-09-14T17:23:05.897Z,2.50
2023-09-14T17:25:33.966Z,2.20
2023-09-14T17:28:03.432Z,2.47
2023-09-14T17:30:32.149Z,2.97
2023-09-14T17:33:00.577Z,2.95
2023-09-14T17:35:28.997Z,2.80
2023-09-14T17:37:57.159Z,2.33
2023-09-14T17:40:25.444Z,2.58
2023-09-14T17:42:53.546Z,2.22
2023-09-14T17:45:22.970Z,2.55
2023-09-14T17:47:51.198Z,2.53
2023-09-14T17:50:19.377Z,2.67
2023-09-14T17:52:47.575Z,2.55
2023-09-14T17:55:17.329Z,2.45
2023-09-14T17:57:45.980Z,2.67
2023-09-14T18:00:15.826Z,2.80
2023-09-14T18:02:47.037Z,3.22
2023-09-14T18:05:15.448Z,2.47
2023-09-14T18:07:44.988Z,2.47
2023-09-14T18:10:13.785Z,2.75
2023-09-14T18:12:41.957Z,2.50
2023-09-14T18:15:11.285Z,2.85
2023-09-14T18:17:39.447Z,2.45
2023-09-14T18:20:11.745Z,2.65
2023-09-14T18:22:42.241Z,2.85
2023-09-14T18:25:11.724Z,2.63
2023-09-14T18:27:39.871Z,3.53
2023-09-14T18:30:09.880Z,2.78
2023-09-14T18:32:51.402Z,2.88
2023-09-14T18:35:21.080Z,3.00
2023-09-14T18:37:52.189Z,3.28
2023-09-14T18:40:20.412Z,2.92
2023-09-14T18:42:50.072Z,3.10
2023-09-14T18:45:18.548Z,2.95
2023-09-14T18:47:46.636Z,2.72
2023-09-14T18:50:14.772Z,2.78
2023-09-14T18:52:45.117Z,3.20
2023-09-14T18:55:14.895Z,3.10
2023-09-14T18:57:44.646Z,3.00
2023-09-14T19:00:13.475Z,2.83
2023-09-14T19:02:43.107Z,3.40
2023-09-14T19:05:11.280Z,3.10
2023-09-14T19:07:39.344Z,3.10
2023-09-14T19:10:10.370Z,3.20
2023-09-14T19:12:38.568Z,3.30
2023-09-14T19:15:08.486Z,3.28
2023-09-14T19:17:36.564Z,2.90
2023-09-14T19:20:09.170Z,3.20
2023-09-14T19:22:37.245Z,2.50
2023-09-14T19:25:06.045Z,3.58
2023-09-14T19:27:35.565Z,2.83
2023-09-14T19:30:05.649Z,3.00
2023-09-14T19:32:34.331Z,2.97
2023-09-14T19:35:02.467Z,3.40
2023-09-14T19:37:30.534Z,3.78
2023-09-14T19:39:58.638Z,3.70
2023-09-14T19:42:27.035Z,3.70
2023-09-14T19:44:59.538Z,3.97
2023-09-14T19:47:28.227Z,4.00
2023-09-14T19:49:56.932Z,3.58
2023-09-14T19:52:25.570Z,3.65
2023-09-14T19:54:53.602Z,3.70
2023-09-14T19:57:21.683Z,3.70
2023-09-14T19:59:49.784Z,3.47
2023-09-14T20:02:19.667Z,3.88
2023-09-14T20:04:48.135Z,3.83
2023-09-14T20:07:16.277Z,3.97
2023-09-14T20:09:44.388Z,3.63
2023-09-14T20:12:17.282Z,3.50
2023-09-14T20:14:46.194Z,3.55
2023-09-14T20:17:16.904Z,3.22
2023-09-14T20:19:46.432Z,3.65
2023-09-14T20:22:14.811Z,4.20
2023-09-14T20:24:44.661Z,4.00
2023-09-14T20:27:13.273Z,3.50
2023-09-14T20:29:41.311Z,3.80
2023-09-14T20:32:09.369Z,3.83
2023-09-14T20:34:37.522Z,3.17
2023-09-14T20:37:08.299Z,3.13
2023-09-14T20:39:36.438Z,3.70
2023-09-14T20:42:05.200Z,3.67
2023-09-14T20:44:33.317Z,3.90
2023-09-14T20:47:01.382Z,3.60
2023-09-14T20:49:29.688Z,3.47
2023-09-14T20:51:57.883Z,3.55
2023-09-14T20:54:27.358Z,3.83
2023-09-14T20:56:55.624Z,3.38
2023-09-14T20:59:23.890Z,3.95
2023-09-14T21:01:52.969Z,3.55
2023-09-14T21:04:21.071Z,3.05
2023-09-14T21:06:49.251Z,3.47
2023-09-14T21:09:17.469Z,3.50
2023-09-14T21:11:47.016Z,3.10
2023-09-14T21:14:15.108Z,3.47
2023-09-14T21:16:43.292Z,3.70
2023-09-14T21:19:11.519Z,3.63
2023-09-14T21:21:40.012Z,3.67
2023-09-14T21:24:08.830Z,3.88
2023-09-14T21:26:36.918Z,3.75
2023-09-14T21:29:06.464Z,3.83
2023-09-14T21:31:34.639Z,3.53
2023-09-14T21:34:02.702Z,3.67
2023-09-14T21:36:30.817Z,3.65
2023-09-14T21:38:59.346Z,3.47
2023-09-14T21:41:27.448Z,3.92
2023-09-14T21:43:55.566Z,3.72
2023-09-14T21:46:25.685Z,3.65
2023-09-14T21:48:54.217Z,4.22
2023-09-14T21:51:22.338Z,3.85
2023-09-14T21:53:50.490Z,3.60
2023-09-14T21:56:18.549Z,3.70
2023-09-14T21:58:46.825Z,4.13
2023-09-14T22:01:15.429Z,3.83
2023-09-14T22:03:51.551Z,3.55
2023-09-14T22:08:51.344Z,3.78
2023-09-14T22:11:19.458Z,4.10
2023-09-14T22:13:47.586Z,3.72
2023-09-14T22:16:15.808Z,3.85
2023-09-14T22:18:47.183Z,3.20
2023-09-14T22:21:15.628Z,3.58
2023-09-14T22:23:44.664Z,3.70
2023-09-14T22:26:12.934Z,3.38
2023-09-14T22:28:41.035Z,3.25
2023-09-14T22:31:13.686Z,3.35
2023-09-14T22:33:42.220Z,3.78
2023-09-14T22:36:12.304Z,4.00
2023-09-14T22:38:41.143Z,3.28
2023-09-14T22:41:09.203Z,3.42
2023-09-14T22:43:37.229Z,3.65
2023-09-14T22:46:05.338Z,3.38
2023-09-14T22:48:33.472Z,3.35
2023-09-14T22:51:06.068Z,3.60
2023-09-14T22:53:38.556Z,3.83
2023-09-14T22:56:15.477Z,3.80
2023-09-14T22:58:44.881Z,3.90
2023-09-14T23:01:13.364Z,3.05
2023-09-14T23:03:42.247Z,3.63
2023-09-14T23:06:13.061Z,4.05
2023-09-14T23:08:45.576Z,3.65
2023-09-14T23:11:21.528Z,3.42
2023-09-14T23:13:50.336Z,3.35
2023-09-14T23:16:19.429Z,3.83
2023-09-14T23:18:47.813Z,3.47
2023-09-14T23:21:16.603Z,4.03
2023-09-14T23:23:46.297Z,3.95
2023-09-14T23:26:14.662Z,3.78
2023-09-14T23:28:42.719Z,3.75
2023-09-14T23:31:10.835Z,4.18
2023-09-14T23:33:39.021Z,3.95
2023-09-14T23:36:09.832Z,3.58
2023-09-14T23:38:38.504Z,3.90
2023-09-14T23:41:07.350Z,3.80
2023-09-14T23:43:35.683Z,4.38
2023-09-14T23:46:04.831Z,4.00
2023-09-14T23:48:34.304Z,3.85
2023-09-14T23:51:02.375Z,3.80
2023-09-14T23:53:30.537Z,4.20
2023-09-14T23:55:58.617Z,4.10
2023-09-14T23:58:28.029Z,4.20
